sensor_id;sensor_type;location;lat;lon;timestamp;pressure;altitude;pressure_sealevel;temperature;humidity
15444;BME280;7822;48.146;11.576;2023-05-01T00:02:25;94995.59;;;15.27;69.59
15444;BME280;7822;48.146;11.576;2023-05-01T00:04:53;94988.75;;;15.26;69.61
15444;BME280;7822;48.146;11.576;2023-05-01T00:07:20;94989.56;;;15.26;69.54
15444;BME280;7822;48.146;11.576;2023-05-01T00:09:48;94990.38;;;15.27;69.60
15444;BME280;7822;48.146;11.576;2023-05-01T00:12:15;94984.34;;;15.26;69.34
15444;BME280;7822;48.146;11.576;2023-05-01T00:14:43;94982.53;;;15.27;69.56
15444;BME280;7822;48.146;11.576;2023-05-01T00:17:10;94977.28;;;15.27;69.48
15444;BME280;7822;48.146;11.576;2023-05-01T00:19:39;94977.28;;;15.27;69.63
15444;BME280;7822;48.146;11.576;2023-05-01T00:22:07;94973.88;;;15.26;69.63
15444;BME280;7822;48.146;11.576;2023-05-01T00:24:34;94967.66;;;15.27;69.44
15444;BME280;7822;48.146;11.576;2023-05-01T00:27:01;94972.91;;;15.27;69.38
15444;BME280;7822;48.146;11.576;2023-05-01T00:29:29;94971.09;;;15.28;69.59
15444;BME280;7822;48.146;11.576;2023-05-01T00:31:56;94972.91;;;15.27;69.42
15444;BME280;7822;48.146;11.576;2023-05-01T00:34:24;94965.06;;;15.27;69.58
15444;BME280;7822;48.146;11.576;2023-05-01T00:36:53;94959.81;;;15.27;69.63
15444;BME280;7822;48.146;11.576;2023-05-01T00:39:20;94963.44;;;15.26;69.35
15444;BME280;7822;48.146;11.576;2023-05-01T00:41:48;94972.91;;;15.27;69.54
15444;BME280;7822;48.146;11.576;2023-05-01T00:44:15;94960.81;;;15.26;69.54
15444;BME280;7822;48.146;11.576;2023-05-01T00:46:43;94962.44;;;15.27;69.51
15444;BME280;7822;48.146;11.576;2023-05-01T00:49:10;94962.59;;;15.26;69.54
15444;BME280;7822;48.146;11.576;2023-05-01T00:51:38;94960.00;;;15.26;69.55
15444;BME280;7822;48.146;11.576;2023-05-01T00:54:08;94958.22;;;15.26;69.60
15444;BME280;7822;48.146;11.576;2023-05-01T00:56:35;94954.78;;;15.26;69.55
15444;BME280;7822;48.146;11.576;2023-05-01T00:59:03;94947.88;;;15.25;69.53
15444;BME280;7822;48.146;11.576;2023-05-01T01:01:31;94955.59;;;15.26;69.57
15444;BME280;7822;48.146;11.576;2023-05-01T01:04:00;94945.28;;;15.25;69.62
15444;BME280;7822;48.146;11.576;2023-05-01T01:06:28;94955.59;;;15.26;69.66
15444;BME280;7822;48.146;11.576;2023-05-01T01:08:59;94948.72;;;15.25;69.61
15444;BME280;7822;48.146;11.576;2023-05-01T01:11:36;94943.50;;;15.25;69.40
15444;BME280;7822;48.146;11.576;2023-05-01T01:14:06;94943.50;;;15.25;69.62
15444;BME280;7822;48.146;11.576;2023-05-01T01:16:36;94937.44;;;15.25;69.56
15444;BME280;7822;48.146;11.576;2023-05-01T01:19:11;94937.44;;;15.25;69.64
15444;BME280;7822;48.146;11.576;2023-05-01T01:21:45;94931.41;;;15.24;69.73
15444;BME280;7822;48.146;11.576;2023-05-01T01:24:25;94936.66;;;15.24;69.60
15444;BME280;7822;48.146;11.576;2023-05-01T01:27:02;94936.66;;;15.24;69.66
15444;BME280;7822;48.146;11.576;2023-05-01T01:29:38;94931.41;;;15.24;69.66
15444;BME280;7822;48.146;11.576;2023-05-01T01:32:09;94926.19;;;15.24;69.56
15444;BME280;7822;48.146;11.576;2023-05-01T01:34:41;94923.56;;;15.24;69.67
15444;BME280;7822;48.146;11.576;2023-05-01T01:37:10;94923.56;;;15.24;69.75
15444;BME280;7822;48.146;11.576;2023-05-01T01:39:42;94926.19;;;15.24;69.61
15444;BME280;7822;48.146;11.576;2023-05-01T01:42:12;94922.59;;;15.25;69.55
15444;BME280;7822;48.146;11.576;2023-05-01T01:44:49;94920.97;;;15.24;69.79
15444;BME280;7822;48.146;11.576;2023-05-01T01:47:18;94919.16;;;15.25;69.52
15444;BME280;7822;48.146;11.576;2023-05-01T01:49:48;94911.31;;;15.25;69.63
15444;BME280;7822;48.146;11.576;2023-05-01T01:52:18;94907.91;;;15.24;69.75
15444;BME280;7822;48.146;11.576;2023-05-01T01:54:47;94916.53;;;15.25;69.65
15444;BME280;7822;48.146;11.576;2023-05-01T01:57:17;94910.34;;;15.26;69.52
15444;BME280;7822;48.146;11.576;2023-05-01T01:59:45;94906.91;;;15.25;69.64
15444;BME280;7822;48.146;11.576;2023-05-01T02:02:15;94911.31;;;15.25;69.76
15444;BME280;7822;48.146;11.576;2023-05-01T02:04:43;94907.91;;;15.24;69.60
15444;BME280;7822;48.146;11.576;2023-05-01T02:07:13;94901.69;;;15.25;69.44
15444;BME280;7822;48.146;11.576;2023-05-01T02:09:41;94901.69;;;15.25;69.76
15444;BME280;7822;48.146;11.576;2023-05-01T02:12:11;94905.28;;;15.24;69.56
15444;BME280;7822;48.146;11.576;2023-05-01T02:14:38;94902.69;;;15.24;69.60
15444;BME280;7822;48.146;11.576;2023-05-01T02:17:07;94909.53;;;15.25;69.67
15444;BME280;7822;48.146;11.576;2023-05-01T02:19:36;94901.69;;;15.25;69.66
15444;BME280;7822;48.146;11.576;2023-05-01T02:22:05;94907.72;;;15.26;69.66
15444;BME280;7822;48.146;11.576;2023-05-01T02:24:34;94901.69;;;15.25;69.56
15444;BME280;7822;48.146;11.576;2023-05-01T02:27:12;94894.84;;;15.24;69.68
15444;BME280;7822;48.146;11.576;2023-05-01T02:29:41;94891.22;;;15.25;69.54
15444;BME280;7822;48.146;11.576;2023-05-01T02:32:09;94887.78;;;15.25;69.67
15444;BME280;7822;48.146;11.576;2023-05-01T02:34:37;94887.00;;;15.24;69.69
15444;BME280;7822;48.146;11.576;2023-05-01T02:37:05;94868.84;;;15.23;69.68
15444;BME280;7822;48.146;11.576;2023-05-01T02:39:34;94869.50;;;15.25;69.71
15444;BME280;7822;48.146;11.576;2023-05-01T02:42:01;94868.69;;;15.24;69.85
15444;BME280;7822;48.146;11.576;2023-05-01T02:44:29;94868.69;;;15.24;69.85
15444;BME280;7822;48.146;11.576;2023-05-01T02:46:59;94866.09;;;15.24;69.62
15444;BME280;7822;48.146;11.576;2023-05-01T02:49:27;94868.84;;;15.23;69.79
15444;BME280;7822;48.146;11.576;2023-05-01T02:51:56;94874.06;;;15.23;69.71
15444;BME280;7822;48.146;11.576;2023-05-01T02:54:24;94866.09;;;15.24;69.63
15444;BME280;7822;48.146;11.576;2023-05-01T02:56:53;94870.63;;;15.22;69.79
15444;BME280;7822;48.146;11.576;2023-05-01T02:59:23;94873.09;;;15.24;69.80
15444;BME280;7822;48.146;11.576;2023-05-01T03:01:50;94871.44;;;15.23;69.76
15444;BME280;7822;48.146;11.576;2023-05-01T03:04:18;94871.44;;;15.23;69.84
15444;BME280;7822;48.146;11.576;2023-05-01T03:06:45;94867.22;;;15.22;69.96
15444;BME280;7822;48.146;11.576;2023-05-01T03:09:13;94868.84;;;15.23;69.84
15444;BME280;7822;48.146;11.576;2023-05-01T03:11:41;94869.66;;;15.23;69.79
15444;BME280;7822;48.146;11.576;2023-05-01T03:14:10;94868.84;;;15.23;69.96
15444;BME280;7822;48.146;11.576;2023-05-01T03:16:38;94871.44;;;15.23;69.82
15444;BME280;7822;48.146;11.576;2023-05-01T03:19:05;94863.47;;;15.24;70.10
15444;BME280;7822;48.146;11.576;2023-05-01T03:21:33;94852.34;;;15.22;69.79
15444;BME280;7822;48.146;11.576;2023-05-01T03:24:00;94855.78;;;15.23;69.72
15444;BME280;7822;48.146;11.576;2023-05-01T03:26:28;94850.56;;;15.23;69.75
15444;BME280;7822;48.146;11.576;2023-05-01T03:28:55;94858.25;;;15.24;69.74
15444;BME280;7822;48.146;11.576;2023-05-01T03:31:24;94844.34;;;15.24;69.74
15444;BME280;7822;48.146;11.576;2023-05-01T03:33:52;94853.03;;;15.24;69.76
15444;BME280;7822;48.146;11.576;2023-05-01T03:36:19;94852.19;;;15.24;69.78
15444;BME280;7822;48.146;11.576;2023-05-01T03:38:48;94859.03;;;15.25;69.73
15444;BME280;7822;48.146;11.576;2023-05-01T03:41:15;94855.63;;;15.24;69.85
15444;BME280;7822;48.146;11.576;2023-05-01T03:43:43;94852.03;;;15.25;69.71
15444;BME280;7822;48.146;11.576;2023-05-01T03:46:10;94859.88;;;15.25;69.60
15444;BME280;7822;48.146;11.576;2023-05-01T03:48:39;94852.03;;;15.25;69.68
15444;BME280;7822;48.146;11.576;2023-05-01T03:51:07;94846.81;;;15.25;69.72
15444;BME280;7822;48.146;11.576;2023-05-01T03:53:34;94851.06;;;15.26;69.96
15444;BME280;7822;48.146;11.576;2023-05-01T03:56:02;94840.59;;;15.26;69.75
15444;BME280;7822;48.146;11.576;2023-05-01T03:58:30;94845.97;;;15.25;69.79
15444;BME280;7822;48.146;11.576;2023-05-01T04:00:58;94838.97;;;15.25;69.73
15444;BME280;7822;48.146;11.576;2023-05-01T04:03:26;94836.34;;;15.25;69.80
15444;BME280;7822;48.146;11.576;2023-05-01T04:05:55;94833.75;;;15.25;69.91
15444;BME280;7822;48.146;11.576;2023-05-01T04:08:23;94832.91;;;15.25;69.84
15444;BME280;7822;48.146;11.576;2023-05-01T04:10:50;94845.84;;;15.26;69.74
15444;BME280;7822;48.146;11.576;2023-05-01T04:13:18;94848.44;;;15.26;69.82
15444;BME280;7822;48.146;11.576;2023-05-01T04:15:45;94843.22;;;15.26;69.93
15444;BME280;7822;48.146;11.576;2023-05-01T04:18:13;94835.53;;;15.25;69.83
15444;BME280;7822;48.146;11.576;2023-05-01T04:20:41;94841.56;;;15.25;69.89
15444;BME280;7822;48.146;11.576;2023-05-01T04:23:09;94832.91;;;15.25;69.77
15444;BME280;7822;48.146;11.576;2023-05-01T04:25:37;94833.75;;;15.25;69.85
15444;BME280;7822;48.146;11.576;2023-05-01T04:28:05;94831.13;;;15.25;69.72
15444;BME280;7822;48.146;11.576;2023-05-01T04:30:32;94834.56;;;15.26;69.86
15444;BME280;7822;48.146;11.576;2023-05-01T04:33:00;94838.00;;;15.26;69.94
15444;BME280;7822;48.146;11.576;2023-05-01T04:35:29;94825.91;;;15.25;69.74
15444;BME280;7822;48.146;11.576;2023-05-01T04:37:56;94826.72;;;15.26;69.83
15444;BME280;7822;48.146;11.576;2023-05-01T04:40:25;94829.34;;;15.26;69.94
15444;BME280;7822;48.146;11.576;2023-05-01T04:42:52;94834.56;;;15.26;69.86
15444;BME280;7822;48.146;11.576;2023-05-01T04:45:20;94826.72;;;15.26;69.90
15444;BME280;7822;48.146;11.576;2023-05-01T04:47:47;94823.94;;;15.27;69.82
15444;BME280;7822;48.146;11.576;2023-05-01T04:50:15;94819.72;;;15.26;69.86
15444;BME280;7822;48.146;11.576;2023-05-01T04:52:42;94829.16;;;15.27;69.85
15444;BME280;7822;48.146;11.576;2023-05-01T04:55:10;94837.81;;;15.28;69.73
15444;BME280;7822;48.146;11.576;2023-05-01T04:57:39;94830.00;;;15.28;69.74
15444;BME280;7822;48.146;11.576;2023-05-01T05:00:06;94834.22;;;15.29;69.78
15444;BME280;7822;48.146;11.576;2023-05-01T05:02:34;94834.22;;;15.29;69.81
15444;BME280;7822;48.146;11.576;2023-05-01T05:05:02;94835.88;;;15.30;69.99
15444;BME280;7822;48.146;11.576;2023-05-01T05:07:29;94845.50;;;15.29;69.79
15444;BME280;7822;48.146;11.576;2023-05-01T05:09:57;94839.31;;;15.30;69.79
15444;BME280;7822;48.146;11.576;2023-05-01T05:12:24;94841.75;;;15.32;69.82
15444;BME280;7822;48.146;11.576;2023-05-01T05:14:53;94840.94;;;15.31;69.77
15444;BME280;7822;48.146;11.576;2023-05-01T05:17:21;94838.31;;;15.31;69.84
15444;BME280;7822;48.146;11.576;2023-05-01T05:19:48;94845.19;;;15.32;69.76
15444;BME280;7822;48.146;11.576;2023-05-01T05:22:15;94847.81;;;15.32;69.94
15444;BME280;7822;48.146;11.576;2023-05-01T05:24:43;94846.16;;;15.31;69.72
15444;BME280;7822;48.146;11.576;2023-05-01T05:27:12;94839.97;;;15.32;69.76
15444;BME280;7822;48.146;11.576;2023-05-01T05:29:39;94858.25;;;15.32;69.76
15444;BME280;7822;48.146;11.576;2023-05-01T05:32:08;94856.47;;;15.33;69.85
15444;BME280;7822;48.146;11.576;2023-05-01T05:34:36;94857.44;;;15.32;69.80
15444;BME280;7822;48.146;11.576;2023-05-01T05:37:04;94853.19;;;15.31;69.75
15444;BME280;7822;48.146;11.576;2023-05-01T05:39:31;94858.44;;;15.31;69.67
15444;BME280;7822;48.146;11.576;2023-05-01T05:41:59;94854.81;;;15.32;69.91
15444;BME280;7822;48.146;11.576;2023-05-01T05:44:26;94846.97;;;15.32;69.82
15444;BME280;7822;48.146;11.576;2023-05-01T05:46:54;94856.47;;;15.33;69.90
15444;BME280;7822;48.146;11.576;2023-05-01T05:49:22;94854.00;;;15.31;69.64
15444;BME280;7822;48.146;11.576;2023-05-01T05:51:50;94858.44;;;15.31;69.76
15444;BME280;7822;48.146;11.576;2023-05-01T05:54:17;94862.81;;;15.30;70.07
15444;BME280;7822;48.146;11.576;2023-05-01T05:56:45;94857.59;;;15.30;69.88
15444;BME280;7822;48.146;11.576;2023-05-01T05:59:12;94859.22;;;15.31;70.04
15444;BME280;7822;48.146;11.576;2023-05-01T06:01:42;94863.66;;;15.31;69.98
15444;BME280;7822;48.146;11.576;2023-05-01T06:04:10;94859.22;;;15.31;69.94
15444;BME280;7822;48.146;11.576;2023-05-01T06:06:40;94858.44;;;15.31;69.92
15444;BME280;7822;48.146;11.576;2023-05-01T06:09:08;94844.53;;;15.30;69.88
15444;BME280;7822;48.146;11.576;2023-05-01T06:11:37;94861.84;;;15.31;69.90
15444;BME280;7822;48.146;11.576;2023-05-01T06:14:05;94857.44;;;15.32;69.90
15444;BME280;7822;48.146;11.576;2023-05-01T06:16:32;94856.59;;;15.31;69.94
15444;BME280;7822;48.146;11.576;2023-05-01T06:19:00;94858.44;;;15.31;70.04
15444;BME280;7822;48.146;11.576;2023-05-01T06:21:28;94857.59;;;15.30;70.00
15444;BME280;7822;48.146;11.576;2023-05-01T06:23:58;94847.97;;;15.31;70.06
15444;BME280;7822;48.146;11.576;2023-05-01T06:26:26;94862.81;;;15.30;70.02
15444;BME280;7822;48.146;11.576;2023-05-01T06:28:53;94853.19;;;15.31;70.04
15444;BME280;7822;48.146;11.576;2023-05-01T06:31:21;94853.34;;;15.29;70.09
15444;BME280;7822;48.146;11.576;2023-05-01T06:33:48;94858.56;;;15.29;70.00
15444;BME280;7822;48.146;11.576;2023-05-01T06:36:16;94855.00;;;15.30;69.83
15444;BME280;7822;48.146;11.576;2023-05-01T06:38:43;94859.22;;;15.31;70.00
15444;BME280;7822;48.146;11.576;2023-05-01T06:41:15;94865.28;;;15.32;69.98
15444;BME280;7822;48.146;11.576;2023-05-01T06:43:43;94847.81;;;15.32;69.92
15444;BME280;7822;48.146;11.576;2023-05-01T06:46:10;94864.44;;;15.31;69.96
15444;BME280;7822;48.146;11.576;2023-05-01T06:48:38;94866.09;;;15.32;69.90
15444;BME280;7822;48.146;11.576;2023-05-01T06:51:05;94855.63;;;15.32;69.97
15444;BME280;7822;48.146;11.576;2023-05-01T06:53:33;94859.88;;;15.33;69.95
15444;BME280;7822;48.146;11.576;2023-05-01T06:56:01;94860.69;;;15.34;69.87
15444;BME280;7822;48.146;11.576;2023-05-01T06:58:30;94862.50;;;15.33;69.96
15444;BME280;7822;48.146;11.576;2023-05-01T07:00:58;94863.31;;;15.34;69.84
15444;BME280;7822;48.146;11.576;2023-05-01T07:03:25;94860.69;;;15.34;69.92
15444;BME280;7822;48.146;11.576;2023-05-01T07:05:53;94865.94;;;15.34;69.84
15444;BME280;7822;48.146;11.576;2023-05-01T07:08:21;94863.31;;;15.34;69.93
15444;BME280;7822;48.146;11.576;2023-05-01T07:10:49;94870.19;;;15.35;69.94
15444;BME280;7822;48.146;11.576;2023-05-01T07:13:16;94865.09;;;15.33;69.97
15444;BME280;7822;48.146;11.576;2023-05-01T07:15:46;94868.53;;;15.34;70.01
15444;BME280;7822;48.146;11.576;2023-05-01T07:18:13;94864.13;;;15.34;69.93
15444;BME280;7822;48.146;11.576;2023-05-01T07:20:42;94861.69;;;15.33;69.88
15444;BME280;7822;48.146;11.576;2023-05-01T07:23:10;94861.53;;;15.34;70.03
15444;BME280;7822;48.146;11.576;2023-05-01T07:25:37;94861.53;;;15.34;70.10
15444;BME280;7822;48.146;11.576;2023-05-01T07:28:09;94864.97;;;15.35;70.05
15444;BME280;7822;48.146;11.576;2023-05-01T07:30:36;94869.38;;;15.34;69.96
15444;BME280;7822;48.146;11.576;2023-05-01T07:33:06;94869.38;;;15.34;70.03
15444;BME280;7822;48.146;11.576;2023-05-01T07:35:33;94863.66;;;15.31;69.02
15444;BME280;7822;48.146;11.576;2023-05-01T07:38:01;94861.53;;;15.26;67.99
15444;BME280;7822;48.146;11.576;2023-05-01T07:40:31;94867.22;;;15.22;66.86
15444;BME280;7822;48.146;11.576;2023-05-01T07:42:59;94869.97;;;15.20;65.83
15444;BME280;7822;48.146;11.576;2023-05-01T07:45:26;94877.31;;;15.17;65.24
15444;BME280;7822;48.146;11.576;2023-05-01T07:47:54;94879.09;;;15.16;65.00
15444;BME280;7822;48.146;11.576;2023-05-01T07:50:23;94879.63;;;15.20;66.06
15444;BME280;7822;48.146;11.576;2023-05-01T07:52:51;94872.09;;;15.25;66.51
15444;BME280;7822;48.146;11.576;2023-05-01T07:55:20;94879.81;;;15.26;65.99
15444;BME280;7822;48.146;11.576;2023-05-01T07:57:47;94874.25;;;15.29;66.38
15444;BME280;7822;48.146;11.576;2023-05-01T08:00:16;94870.81;;;15.29;64.88
15444;BME280;7822;48.146;11.576;2023-05-01T08:02:44;94875.25;;;15.28;64.64
15444;BME280;7822;48.146;11.576;2023-05-01T08:05:11;94879.16;;;15.24;63.90
15444;BME280;7822;48.146;11.576;2023-05-01T08:07:40;94877.69;;;15.22;64.15
15444;BME280;7822;48.146;11.576;2023-05-01T08:10:08;94879.63;;;15.20;64.10
15444;BME280;7822;48.146;11.576;2023-05-01T08:12:36;94883.38;;;15.17;64.04
15444;BME280;7822;48.146;11.576;2023-05-01T08:15:04;94891.22;;;15.17;64.03
15444;BME280;7822;48.146;11.576;2023-05-01T08:17:31;94890.56;;;15.15;64.37
15444;BME280;7822;48.146;11.576;2023-05-01T08:19:59;94892.50;;;15.13;64.13
15444;BME280;7822;48.146;11.576;2023-05-01T08:22:27;94895.25;;;15.12;63.64
15444;BME280;7822;48.146;11.576;2023-05-01T08:24:55;94903.28;;;15.10;63.82
15444;BME280;7822;48.146;11.576;2023-05-01T08:27:23;94901.63;;;15.09;63.50
15444;BME280;7822;48.146;11.576;2023-05-01T08:29:50;94894.94;;;15.07;63.29
15444;BME280;7822;48.146;11.576;2023-05-01T08:32:18;94890.84;;;15.04;63.60
15444;BME280;7822;48.146;11.576;2023-05-01T08:34:46;94901.13;;;15.06;63.61
15444;BME280;7822;48.146;11.576;2023-05-01T08:37:14;94907.19;;;15.06;64.30
15444;BME280;7822;48.146;11.576;2023-05-01T08:39:44;94901.94;;;15.06;64.61
15444;BME280;7822;48.146;11.576;2023-05-01T08:42:12;94909.63;;;15.08;64.59
15444;BME280;7822;48.146;11.576;2023-05-01T08:44:40;94907.19;;;15.06;64.41
15444;BME280;7822;48.146;11.576;2023-05-01T08:47:09;94909.13;;;15.04;64.10
15444;BME280;7822;48.146;11.576;2023-05-01T08:49:38;94909.94;;;15.05;64.42
15444;BME280;7822;48.146;11.576;2023-05-01T08:52:07;94918.59;;;15.05;64.94
15444;BME280;7822;48.146;11.576;2023-05-01T08:54:34;94918.59;;;15.05;64.97
15444;BME280;7822;48.146;11.576;2023-05-01T08:57:04;94924.81;;;15.04;65.50
15444;BME280;7822;48.146;11.576;2023-05-01T08:59:37;94924.81;;;15.04;65.58
15444;BME280;7822;48.146;11.576;2023-05-01T09:02:05;94922.31;;;15.03;65.60
15444;BME280;7822;48.146;11.576;2023-05-01T09:04:34;94925.94;;;15.02;65.78
15444;BME280;7822;48.146;11.576;2023-05-01T09:07:02;94925.09;;;15.01;66.00
15444;BME280;7822;48.146;11.576;2023-05-01T09:09:30;94925.09;;;15.01;65.99
15444;BME280;7822;48.146;11.576;2023-05-01T09:11:59;94929.66;;;14.99;66.07
15444;BME280;7822;48.146;11.576;2023-05-01T09:14:28;94930.63;;;14.98;66.22
15444;BME280;7822;48.146;11.576;2023-05-01T09:16:58;94932.28;;;14.99;66.43
15444;BME280;7822;48.146;11.576;2023-05-01T09:19:25;94932.44;;;14.98;66.62
15444;BME280;7822;48.146;11.576;2023-05-01T09:21:53;94934.22;;;14.97;66.64
15444;BME280;7822;48.146;11.576;2023-05-01T09:24:21;94938.63;;;14.97;66.53
15444;BME280;7822;48.146;11.576;2023-05-01T09:26:50;94933.41;;;14.97;66.80
15444;BME280;7822;48.146;11.576;2023-05-01T09:29:36;94937.00;;;14.96;66.91
15444;BME280;7822;48.146;11.576;2023-05-01T09:32:15;94935.19;;;14.96;67.12
15444;BME280;7822;48.146;11.576;2023-05-01T09:34:43;94944.97;;;14.94;67.15
15444;BME280;7822;48.146;11.576;2023-05-01T09:37:11;94940.75;;;14.93;67.36
15444;BME280;7822;48.146;11.576;2023-05-01T09:39:40;94944.97;;;14.94;67.46
15444;BME280;7822;48.146;11.576;2023-05-01T09:42:07;94943.19;;;14.95;67.46
15444;BME280;7822;48.146;11.576;2023-05-01T09:44:41;94943.19;;;14.95;67.65
15444;BME280;7822;48.146;11.576;2023-05-01T09:47:10;94941.41;;;14.95;67.70
15444;BME280;7822;48.146;11.576;2023-05-01T09:49:49;94946.63;;;14.95;67.87
15444;BME280;7822;48.146;11.576;2023-05-01T09:52:17;94951.03;;;14.95;68.28
15444;BME280;7822;48.146;11.576;2023-05-01T09:54:44;94948.72;;;14.92;68.04
15444;BME280;7822;48.146;11.576;2023-05-01T09:57:12;94956.56;;;14.92;68.02
15444;BME280;7822;48.146;11.576;2023-05-01T09:59:39;94947.09;;;14.91;68.10
15444;BME280;7822;48.146;11.576;2023-05-01T10:02:07;94953.16;;;14.91;68.16
15444;BME280;7822;48.146;11.576;2023-05-01T10:04:44;94951.19;;;14.93;68.31
15444;BME280;7822;48.146;11.576;2023-05-01T10:07:13;94946.13;;;14.92;68.23
15444;BME280;7822;48.146;11.576;2023-05-01T10:09:40;94945.31;;;14.91;68.23
15444;BME280;7822;48.146;11.576;2023-05-01T10:12:08;94947.09;;;14.91;68.04
15444;BME280;7822;48.146;11.576;2023-05-01T10:14:48;94948.88;;;14.90;68.28
15444;BME280;7822;48.146;11.576;2023-05-01T10:17:18;94945.63;;;14.88;68.48
15444;BME280;7822;48.146;11.576;2023-05-01T10:19:46;94947.41;;;14.88;68.57
15444;BME280;7822;48.146;11.576;2023-05-01T10:22:15;94948.22;;;14.88;68.52
15444;BME280;7822;48.146;11.576;2023-05-01T10:24:42;94953.28;;;14.90;68.88
15444;BME280;7822;48.146;11.576;2023-05-01T10:27:11;94951.50;;;14.90;68.69
15444;BME280;7822;48.146;11.576;2023-05-01T10:29:39;94946.28;;;14.90;69.04
15444;BME280;7822;48.146;11.576;2023-05-01T10:32:07;94950.53;;;14.91;69.08
15444;BME280;7822;48.146;11.576;2023-05-01T10:34:36;94947.94;;;14.91;69.06
15444;BME280;7822;48.146;11.576;2023-05-01T10:37:05;94944.16;;;14.94;69.20
15444;BME280;7822;48.146;11.576;2023-05-01T10:39:37;94937.69;;;14.98;69.11
15444;BME280;7822;48.146;11.576;2023-05-01T10:42:05;94937.34;;;15.01;68.96
15444;BME280;7822;48.146;11.576;2023-05-01T10:44:36;94938.81;;;15.03;68.97
15444;BME280;7822;48.146;11.576;2023-05-01T10:50:03;94933.13;;;15.08;68.76
15444;BME280;7822;48.146;11.576;2023-05-01T10:55:34;94934.63;;;15.10;69.09
15444;BME280;7822;48.146;11.576;2023-05-01T10:58:02;94930.88;;;15.13;69.00
15444;BME280;7822;48.146;11.576;2023-05-01T11:00:30;94922.03;;;15.14;68.91
15444;BME280;7822;48.146;11.576;2023-05-01T11:06:03;94927.13;;;15.15;69.01
15444;BME280;7822;48.146;11.576;2023-05-01T11:08:32;94915.84;;;15.15;69.09
15444;BME280;7822;48.146;11.576;2023-05-01T11:13:55;94920.09;;;15.16;69.10
15444;BME280;7822;48.146;11.576;2023-05-01T11:16:44;94915.69;;;15.16;69.21
15444;BME280;7822;48.146;11.576;2023-05-01T11:22:01;94911.28;;;15.17;69.30
15444;BME280;7822;48.146;11.576;2023-05-01T11:24:31;94915.56;;;15.18;69.38
15444;BME280;7822;48.146;11.576;2023-05-01T11:26:59;94914.56;;;15.19;69.15
15444;BME280;7822;48.146;11.576;2023-05-01T11:29:30;94916.22;;;15.20;69.40
15444;BME280;7822;48.146;11.576;2023-05-01T11:31:59;94905.75;;;15.20;69.23
15444;BME280;7822;48.146;11.576;2023-05-01T11:34:26;94904.75;;;15.21;69.13
15444;BME280;7822;48.146;11.576;2023-05-01T11:36:54;94901.31;;;15.20;69.15
15444;BME280;7822;48.146;11.576;2023-05-01T11:39:21;94908.22;;;15.21;69.32
15444;BME280;7822;48.146;11.576;2023-05-01T11:41:49;94900.19;;;15.23;69.13
15444;BME280;7822;48.146;11.576;2023-05-01T11:44:17;94904.59;;;15.22;69.11
15444;BME280;7822;48.146;11.576;2023-05-01T11:46:46;94907.06;;;15.24;69.38
15444;BME280;7822;48.146;11.576;2023-05-01T11:49:25;94900.84;;;15.25;69.38
15444;BME280;7822;48.146;11.576;2023-05-01T11:51:55;94902.69;;;15.24;69.25
15444;BME280;7822;48.146;11.576;2023-05-01T11:54:22;94906.91;;;15.25;69.40
15444;BME280;7822;48.146;11.576;2023-05-01T11:56:56;94906.75;;;15.27;69.42
15444;BME280;7822;48.146;11.576;2023-05-01T11:59:24;94905.78;;;15.28;69.21
15444;BME280;7822;48.146;11.576;2023-05-01T12:01:53;94908.38;;;15.28;69.25
15444;BME280;7822;48.146;11.576;2023-05-01T12:04:22;94909.22;;;15.28;69.31
15444;BME280;7822;48.146;11.576;2023-05-01T12:06:50;94908.38;;;15.28;69.43
15444;BME280;7822;48.146;11.576;2023-05-01T12:09:18;94903.97;;;15.28;69.38
15444;BME280;7822;48.146;11.576;2023-05-01T12:11:47;94910.84;;;15.29;69.24
15444;BME280;7822;48.146;11.576;2023-05-01T12:14:18;94909.88;;;15.30;69.34
15444;BME280;7822;48.146;11.576;2023-05-01T12:16:45;94914.28;;;15.30;69.36
15444;BME280;7822;48.146;11.576;2023-05-01T12:19:14;94907.25;;;15.30;69.42
15444;BME280;7822;48.146;11.576;2023-05-01T12:21:42;94910.00;;;15.29;69.38
15444;BME280;7822;48.146;11.576;2023-05-01T12:24:10;94915.91;;;15.31;69.45
15444;BME280;7822;48.146;11.576;2023-05-01T12:26:38;94903.66;;;15.31;69.36
15444;BME280;7822;48.146;11.576;2023-05-01T12:29:05;94905.47;;;15.31;69.44
15444;BME280;7822;48.146;11.576;2023-05-01T12:31:34;94907.25;;;15.30;69.46
15444;BME280;7822;48.146;11.576;2023-05-01T12:34:03;94910.69;;;15.31;69.50
15444;BME280;7822;48.146;11.576;2023-05-01T12:36:33;94900.25;;;15.31;69.53
15444;BME280;7822;48.146;11.576;2023-05-01T12:39:02;94904.63;;;15.30;69.71
15444;BME280;7822;48.146;11.576;2023-05-01T12:41:35;94912.31;;;15.32;69.60
15444;BME280;7822;48.146;11.576;2023-05-01T12:44:14;94907.09;;;15.32;69.59
15444;BME280;7822;48.146;11.576;2023-05-01T12:46:41;94905.31;;;15.32;69.77
15444;BME280;7822;48.146;11.576;2023-05-01T12:49:14;94909.69;;;15.32;69.63
15444;BME280;7822;48.146;11.576;2023-05-01T12:51:45;94912.31;;;15.32;69.61
15444;BME280;7822;48.146;11.576;2023-05-01T12:54:17;94911.50;;;15.31;69.85
15444;BME280;7822;48.146;11.576;2023-05-01T12:56:44;94910.53;;;15.32;69.85
15444;BME280;7822;48.146;11.576;2023-05-01T12:59:19;94915.75;;;15.32;69.76
15444;BME280;7822;48.146;11.576;2023-05-01T13:01:47;94918.38;;;15.32;69.91
15444;BME280;7822;48.146;11.576;2023-05-01T13:04:19;94926.03;;;15.34;69.61
15444;BME280;7822;48.146;11.576;2023-05-01T13:06:48;94910.34;;;15.34;69.70
15444;BME280;7822;48.146;11.576;2023-05-01T13:09:15;94912.16;;;15.33;69.73
15444;BME280;7822;48.146;11.576;2023-05-01T13:11:51;94905.97;;;15.34;69.72
15444;BME280;7822;48.146;11.576;2023-05-01T13:14:22;94912.00;;;15.35;69.75
15444;BME280;7822;48.146;11.576;2023-05-01T13:16:49;94906.78;;;15.35;69.72
15444;BME280;7822;48.146;11.576;2023-05-01T13:19:24;94905.00;;;15.35;69.77
15444;BME280;7822;48.146;11.576;2023-05-01T13:21:54;94899.75;;;15.35;69.72
15444;BME280;7822;48.146;11.576;2023-05-01T13:24:23;94891.91;;;15.35;69.77